createdAt,value
2017-09-17T00:01:25.939Z,21.60
2017-09-17T00:03:54.761Z,21.60
2017-09-17T00:06:23.081Z,21.50
2017-09-17T00:08:52.107Z,21.50
2017-09-17T00:11:24.274Z,21.50
2017-09-17T00:13:54.346Z,21.50
2017-09-17T00:16:23.432Z,21.60
2017-09-17T00:18:53.817Z,21.60
2017-09-17T00:21:23.619Z,21.60
2017-09-17T00:23:51.952Z,21.60
2017-09-17T00:26:22.265Z,21.60
2017-09-17T00:28:51.397Z,21.60
2017-09-17T00:31:21.223Z,21.50
2017-09-17T00:33:50.925Z,21.50
2017-09-17T00:36:19.165Z,21.50
2017-09-17T00:38:48.225Z,21.50
2017-09-17T00:41:17.275Z,21.50
2017-09-17T00:43:45.585Z,21.40
2017-09-17T00:46:13.904Z,21.50
2017-09-17T00:48:42.977Z,21.50
2017-09-17T00:51:11.817Z,21.50
2017-09-17T00:53:41.120Z,21.50
2017-09-17T00:56:12.111Z,21.50
2017-09-17T00:58:42.520Z,21.50
2017-09-17T01:01:10.823Z,21.40
2017-09-17T01:03:40.266Z,21.50
2017-09-17T01:06:08.741Z,21.50
2017-09-17T01:08:37.068Z,21.50
2017-09-17T01:11:05.390Z,21.50
2017-09-17T01:13:33.661Z,21.50
2017-09-17T01:16:02.750Z,21.50
2017-09-17T01:18:31.444Z,21.50
2017-09-17T01:21:00.944Z,21.50
2017-09-17T01:23:30.020Z,21.50
2017-09-17T01:26:00.059Z,21.50
2017-09-17T01:28:28.537Z,21.50
2017-09-17T01:30:57.224Z,21.40
2017-09-17T01:33:25.500Z,21.40
2017-09-17T01:35:53.808Z,21.40
2017-09-17T01:38:22.080Z,21.40
2017-09-17T01:40:50.364Z,21.50
2017-09-17T01:43:18.639Z,21.50
2017-09-17T01:45:46.872Z,21.50
2017-09-17T01:48:15.931Z,21.50
2017-09-17T01:50:44.200Z,21.50
2017-09-17T01:53:12.424Z,21.50
2017-09-17T01:55:40.731Z,21.40
2017-09-17T01:58:08.968Z,21.40
2017-09-17T02:00:37.320Z,21.40
2017-09-17T02:03:05.623Z,21.40
2017-09-17T02:05:33.902Z,21.40
2017-09-17T02:08:02.132Z,21.40
2017-09-17T02:10:30.389Z,21.50
2017-09-17T02:12:58.623Z,21.50
2017-09-17T02:15:26.916Z,21.40
2017-09-17T02:17:55.133Z,21.40
2017-09-17T02:20:23.381Z,21.40
2017-09-17T02:22:51.656Z,21.40
2017-09-17T02:25:19.932Z,21.50
2017-09-17T02:27:48.181Z,21.50
2017-09-17T02:30:17.012Z,21.50
2017-09-17T02:32:45.262Z,21.50
2017-09-17T02:35:13.510Z,21.50
2017-09-17T02:37:41.772Z,21.50
2017-09-17T02:40:10.932Z,21.40
2017-09-17T02:42:39.199Z,21.40
2017-09-17T02:45:07.940Z,21.40
2017-09-17T02:47:36.183Z,21.40
2017-09-17T02:50:05.202Z,21.40
2017-09-17T02:52:33.433Z,21.40
2017-09-17T02:55:01.775Z,21.50
2017-09-17T02:57:30.028Z,21.40
2017-09-17T02:59:59.736Z,21.40
2017-09-17T03:02:28.727Z,21.40
2017-09-17T03:04:57.729Z,21.40
2017-09-17T03:07:26.019Z,21.40
2017-09-17T03:09:54.268Z,21.40
2017-09-17T03:12:22.528Z,21.40
2017-09-17T03:14:50.744Z,21.40
2017-09-17T03:17:18.978Z,21.40
2017-09-17T03:19:48.029Z,21.40
2017-09-17T03:22:17.079Z,21.40
2017-09-17T03:24:46.090Z,21.40
2017-09-17T03:27:14.325Z,21.40
2017-09-17T03:29:43.365Z,21.40
2017-09-17T03:32:11.636Z,21.40
2017-09-17T03:34:39.888Z,21.40
2017-09-17T03:37:08.125Z,21.40
2017-09-17T03:39:36.337Z,21.40
2017-09-17T03:42:04.537Z,21.40
2017-09-17T03:44:33.518Z,21.40
2017-09-17T03:47:01.814Z,21.40
2017-09-17T03:49:30.032Z,21.40
2017-09-17T03:51:58.259Z,21.40
2017-09-17T03:54:26.507Z,21.40
2017-09-17T03:56:54.772Z,21.40
2017-09-17T03:59:23.016Z,21.40
2017-09-17T04:01:51.238Z,21.40
2017-09-17T04:04:19.478Z,21.40
2017-09-17T04:06:48.512Z,21.40
2017-09-17T04:09:16.686Z,21.40
2017-09-17T04:11:44.949Z,21.40
2017-09-17T04:14:13.173Z,21.40
2017-09-17T04:16:41.455Z,21.40
2017-09-17T04:19:09.772Z,21.40
2017-09-17T04:21:38.020Z,21.40
2017-09-17T04:24:07.016Z,21.30
2017-09-17T04:26:36.048Z,21.40
2017-09-17T04:29:05.383Z,21.40
2017-09-17T04:31:33.633Z,21.40
2017-09-17T04:34:01.984Z,21.40
2017-09-17T04:36:31.037Z,21.40
2017-09-17T04:38:59.280Z,21.40
2017-09-17T04:41:27.541Z,21.40
2017-09-17T04:43:55.885Z,21.40
2017-09-17T04:46:24.898Z,21.30
2017-09-17T04:48:53.109Z,21.30
2017-09-17T04:51:21.320Z,21.30
2017-09-17T04:53:50.299Z,21.40
2017-09-17T04:56:18.526Z,21.30
2017-09-17T04:58:46.796Z,21.40
2017-09-17T05:01:15.024Z,21.40
2017-09-17T05:03:43.297Z,21.40
2017-09-17T05:06:11.848Z,21.40
2017-09-17T05:08:40.052Z,21.40
2017-09-17T05:11:08.308Z,21.40
2017-09-17T05:13:36.593Z,21.40
2017-09-17T05:16:04.838Z,21.40
2017-09-17T05:18:33.412Z,21.40
2017-09-17T05:21:01.663Z,21.40
2017-09-17T05:23:29.988Z,21.40
2017-09-17T05:25:58.229Z,21.40
2017-09-17T05:28:26.440Z,21.40
2017-09-17T05:30:54.674Z,21.40
2017-09-17T05:33:22.938Z,21.40
2017-09-17T05:35:52.031Z,21.40
2017-09-17T05:38:21.069Z,21.40
2017-09-17T05:40:49.299Z,21.40
2017-09-17T05:43:17.575Z,21.40
2017-09-17T05:45:45.851Z,21.40
2017-09-17T05:48:14.088Z,21.40
2017-09-17T05:50:42.486Z,21.40
2017-09-17T05:53:11.508Z,21.40
2017-09-17T05:55:39.743Z,21.30
2017-09-17T05:58:08.010Z,21.40
2017-09-17T06:00:36.270Z,21.40
2017-09-17T06:03:04.540Z,21.40
2017-09-17T06:05:32.805Z,21.40
2017-09-17T06:08:01.036Z,21.50
2017-09-17T06:10:30.018Z,21.60
2017-09-17T06:12:59.013Z,21.60
2017-09-17T06:15:27.998Z,21.70
2017-09-17T06:17:56.179Z,21.70
2017-09-17T06:20:25.163Z,21.70
2017-09-17T06:22:54.153Z,21.70
2017-09-17T06:25:22.346Z,21.70
2017-09-17T06:27:51.365Z,21.80
2017-09-17T06:30:20.100Z,21.70
2017-09-17T06:32:48.349Z,21.80
2017-09-17T06:35:16.583Z,21.80
2017-09-17T06:37:44.825Z,21.80
2017-09-17T06:40:13.069Z,21.80
2017-09-17T06:42:41.329Z,21.80
2017-09-17T06:45:09.616Z,21.80
2017-09-17T06:47:37.847Z,21.90
2017-09-17T06:50:06.840Z,21.80
2017-09-17T06:52:35.881Z,21.90
2017-09-17T06:55:04.112Z,21.90
2017-09-17T06:57:34.777Z,21.80
2017-09-17T07:00:03.061Z,21.90
2017-09-17T07:02:31.302Z,21.90
2017-09-17T07:04:59.628Z,21.90
2017-09-17T07:07:27.978Z,21.90
2017-09-17T07:09:57.065Z,21.90
2017-09-17T07:12:25.346Z,21.90
2017-09-17T07:14:53.603Z,21.90
2017-09-17T07:17:21.880Z,21.90
2017-09-17T07:19:50.147Z,21.90
2017-09-17T07:22:18.725Z,21.90
2017-09-17T07:24:47.082Z,21.90
2017-09-17T07:27:16.163Z,21.90
2017-09-17T07:29:45.476Z,21.90
2017-09-17T07:32:14.490Z,21.90
2017-09-17T07:34:42.839Z,21.90
2017-09-17T07:37:11.076Z,22.00
2017-09-17T07:39:39.340Z,22.00
2017-09-17T07:42:08.088Z,22.00
2017-09-17T07:44:37.095Z,22.00
2017-09-17T07:47:05.685Z,22.00
2017-09-17T07:49:35.406Z,22.00
2017-09-17T07:52:03.686Z,22.00
2017-09-17T07:54:31.915Z,22.00
2017-09-17T07:57:00.173Z,22.00
2017-09-17T07:59:28.425Z,22.00
2017-09-17T08:01:57.117Z,22.00
2017-09-17T08:04:25.410Z,22.00
2017-09-17T08:06:53.681Z,22.00
2017-09-17T08:09:21.987Z,22.00
2017-09-17T08:11:50.280Z,22.00
2017-09-17T08:14:19.593Z,22.00
2017-09-17T08:16:50.494Z,22.00
2017-09-17T08:19:20.627Z,22.00
2017-09-17T08:21:50.471Z,22.00
2017-09-17T08:24:19.723Z,22.00
2017-09-17T08:26:49.932Z,21.90
2017-09-17T08:29:18.148Z,21.90
2017-09-17T08:31:47.269Z,21.90
2017-09-17T08:34:16.537Z,22.00
2017-09-17T08:36:44.806Z,22.00
2017-09-17T08:39:13.997Z,22.00
2017-09-17T08:41:42.248Z,22.00
2017-09-17T08:44:11.352Z,22.00
2017-09-17T08:46:40.451Z,22.00
2017-09-17T08:49:08.778Z,21.90
2017-09-17T08:51:37.121Z,22.00
2017-09-17T08:54:05.345Z,22.00
2017-09-17T08:56:34.485Z,21.90
2017-09-17T08:59:03.075Z,21.90
2017-09-17T09:01:31.320Z,22.00
2017-09-17T09:04:01.714Z,22.00
2017-09-17T09:06:31.482Z,21.90
2017-09-17T09:08:59.866Z,21.90
2017-09-17T09:11:31.824Z,21.90
2017-09-17T09:14:07.149Z,22.00
2017-09-17T09:16:41.536Z,21.90
2017-09-17T09:19:21.565Z,21.90
2017-09-17T09:21:53.472Z,21.90
2017-09-17T09:27:09.218Z,21.90
2017-09-17T09:29:43.551Z,21.90
2017-09-17T09:32:20.839Z,21.90
2017-09-17T09:34:51.051Z,21.90
2017-09-17T09:59:40.394Z,21.90
2017-09-17T10:02:10.985Z,21.10
2017-09-17T10:04:41.113Z,21.30
2017-09-17T10:07:10.018Z,21.40
2017-09-17T10:09:42.467Z,21.60
2017-09-17T10:12:11.671Z,21.60
2017-09-17T10:14:39.948Z,21.70
2017-09-17T10:17:12.740Z,21.70
2017-09-17T10:19:46.820Z,21.70
2017-09-17T10:22:17.472Z,21.80
2017-09-17T10:24:45.939Z,21.80
2017-09-17T10:27:14.315Z,21.80
2017-09-17T10:29:43.560Z,21.80
2017-09-17T10:32:13.921Z,21.80
2017-09-17T10:34:44.925Z,21.80
2017-09-17T10:37:15.587Z,21.80
2017-09-17T10:39:43.875Z,21.90
2017-09-17T10:42:12.161Z,21.90
2017-09-17T10:44:41.742Z,21.90
2017-09-17T10:47:13.218Z,21.90
2017-09-17T10:49:41.820Z,21.90
2017-09-17T10:52:11.131Z,21.90
2017-09-17T10:54:40.192Z,21.90
2017-09-17T10:57:08.461Z,21.90
2017-09-17T10:59:36.656Z,21.90
2017-09-17T11:02:04.922Z,21.90
2017-09-17T11:04:33.183Z,21.90
2017-09-17T11:07:01.473Z,21.90
2017-09-17T11:09:29.800Z,21.90
2017-09-17T11:11:58.024Z,21.90
2017-09-17T11:14:26.256Z,21.90
2017-09-17T11:16:55.296Z,21.90
2017-09-17T11:19:23.619Z,21.90
2017-09-17T11:21:52.631Z,21.90
2017-09-17T11:24:20.876Z,21.90
2017-09-17T11:26:52.084Z,21.90
2017-09-17T11:29:21.639Z,21.90
2017-09-17T11:31:50.876Z,21.90
2017-09-17T11:34:19.652Z,21.90
2017-09-17T11:36:50.166Z,21.90
2017-09-17T11:39:18.444Z,21.90
2017-09-17T11:41:46.724Z,21.90
2017-09-17T11:44:15.002Z,21.90
2017-09-17T11:46:44.372Z,21.90
2017-09-17T11:49:12.627Z,21.90
2017-09-17T11:51:40.885Z,21.90
2017-09-17T11:54:09.114Z,21.90
2017-09-17T11:56:38.148Z,21.90
2017-09-17T11:59:06.365Z,21.90
2017-09-17T12:01:35.411Z,21.90
2017-09-17T12:04:03.692Z,21.90
2017-09-17T12:06:32.361Z,21.90
2017-09-17T12:09:00.604Z,21.90
2017-09-17T12:11:28.865Z,21.90
2017-09-17T12:13:57.898Z,21.90
2017-09-17T12:16:26.148Z,21.90
2017-09-17T12:18:54.484Z,21.90
2017-09-17T12:21:22.729Z,21.90
2017-09-17T12:23:50.962Z,21.90
2017-09-17T12:26:20.549Z,21.90
2017-09-17T12:28:49.808Z,21.80
2017-09-17T12:31:18.530Z,21.90
2017-09-17T12:33:48.521Z,21.90
2017-09-17T12:36:17.316Z,21.90
2017-09-17T12:38:46.243Z,21.90
2017-09-17T12:41:15.275Z,21.90
2017-09-17T12:43:43.574Z,21.90
2017-09-17T12:46:11.858Z,21.90
2017-09-17T12:48:40.107Z,21.90
2017-09-17T12:51:08.368Z,21.90
2017-09-17T12:53:36.611Z,22.00
2017-09-17T12:56:05.671Z,22.00
2017-09-17T12:58:33.963Z,22.00
2017-09-17T13:01:02.222Z,22.00
2017-09-17T13:03:30.433Z,22.00
2017-09-17T13:05:58.779Z,22.00
2017-09-17T13:08:28.640Z,22.00
2017-09-17T13:13:35.160Z,22.00
2017-09-17T13:16:03.553Z,22.00
2017-09-17T13:18:32.908Z,22.00
2017-09-17T13:21:01.317Z,22.00
2017-09-17T13:23:29.591Z,22.00
2017-09-17T13:25:59.404Z,22.00
2017-09-17T13:28:28.645Z,22.00
2017-09-17T13:30:56.955Z,22.00
2017-09-17T13:33:25.525Z,22.00
2017-09-17T13:35:54.307Z,22.00
2017-09-17T13:38:22.603Z,22.00
2017-09-17T13:43:26.960Z,22.00
2017-09-17T13:45:55.668Z,22.00
2017-09-17T13:48:25.448Z,22.00
2017-09-17T13:50:53.716Z,22.00
2017-09-17T13:53:22.154Z,22.00
2017-09-17T13:55:50.574Z,22.00
2017-09-17T13:58:18.964Z,22.00
2017-09-17T14:00:47.461Z,22.00
2017-09-17T14:03:20.212Z,22.00
2017-09-17T14:08:54.338Z,22.00
2017-09-17T14:11:22.620Z,22.00
2017-09-17T14:13:50.862Z,22.00
2017-09-17T14:16:19.129Z,22.00
2017-09-17T14:18:47.378Z,22.00
2017-09-17T14:21:15.610Z,22.00
2017-09-17T14:23:43.875Z,22.00
2017-09-17T14:26:12.172Z,22.00
2017-09-17T14:28:40.882Z,22.00
2017-09-17T14:31:09.204Z,22.00
2017-09-17T14:33:37.414Z,22.00
2017-09-17T14:36:05.707Z,22.00
2017-09-17T14:38:33.978Z,22.00
2017-09-17T14:41:02.272Z,22.00
2017-09-17T14:43:31.386Z,22.00
2017-09-17T14:45:59.638Z,22.00
2017-09-17T14:48:28.668Z,22.00
2017-09-17T14:50:57.008Z,22.00
2017-09-17T14:53:25.244Z,22.00
2017-09-17T14:55:53.554Z,22.00
2017-09-17T14:58:21.785Z,22.00
2017-09-17T15:00:50.128Z,22.00
2017-09-17T15:03:18.423Z,22.00
2017-09-17T15:05:46.662Z,22.00
2017-09-17T15:08:15.688Z,22.00
2017-09-17T15:10:43.934Z,22.00
2017-09-17T15:13:12.971Z,22.10
2017-09-17T15:15:42.146Z,22.00
2017-09-17T15:18:10.372Z,22.00
2017-09-17T15:20:40.115Z,22.00
2017-09-17T15:23:09.347Z,22.00
2017-09-17T15:25:37.632Z,22.00
2017-09-17T15:28:06.860Z,22.00
2017-09-17T15:30:35.800Z,22.00
2017-09-17T15:33:05.082Z,22.00
2017-09-17T15:35:33.388Z,22.10
2017-09-17T15:38:01.764Z,22.00
2017-09-17T15:40:30.757Z,22.10
2017-09-17T15:42:59.062Z,22.00
2017-09-17T15:45:27.621Z,22.00
2017-09-17T15:47:55.897Z,22.00
2017-09-17T15:50:24.229Z,22.00
2017-09-17T15:52:53.277Z,22.10
2017-09-17T15:55:21.822Z,22.00
2017-09-17T15:57:53.082Z,22.00
2017-09-17T16:00:25.329Z,22.00
2017-09-17T16:02:53.794Z,22.00
2017-09-17T16:05:22.065Z,22.00
2017-09-17T16:07:51.224Z,22.00
2017-09-17T16:10:19.522Z,22.00
2017-09-17T16:12:47.831Z,22.00
2017-09-17T16:15:30.429Z,22.00
2017-09-17T16:18:01.076Z,22.00
2017-09-17T16:20:29.735Z,22.00
2017-09-17T16:22:58.727Z,22.00
2017-09-17T16:25:26.957Z,22.10
2017-09-17T16:27:55.692Z,22.10
2017-09-17T16:30:24.677Z,22.10
2017-09-17T16:32:53.800Z,22.00
2017-09-17T16:35:21.996Z,22.00
2017-09-17T16:37:50.224Z,22.10
2017-09-17T16:40:19.373Z,22.10
2017-09-17T16:42:47.644Z,22.00
2017-09-17T16:45:15.918Z,22.10
2017-09-17T16:47:44.193Z,22.10
2017-09-17T16:50:12.747Z,22.00
2017-09-17T16:52:41.137Z,22.10
2017-09-17T16:55:12.210Z,22.10
2017-09-17T16:57:40.553Z,22.10
2017-09-17T17:00:08.922Z,22.10
2017-09-17T17:02:37.136Z,22.10
2017-09-17T17:05:05.371Z,22.10
2017-09-17T17:07:34.405Z,22.10
2017-09-17T17:10:02.627Z,22.10
2017-09-17T17:12:31.589Z,22.00
2017-09-17T17:15:00.238Z,22.00
2017-09-17T17:17:28.617Z,22.00
2017-09-17T17:19:56.851Z,22.00
2017-09-17T17:22:25.864Z,22.00
2017-09-17T17:24:54.184Z,22.00
2017-09-17T17:27:22.432Z,22.00
2017-09-17T17:29:50.696Z,22.00
2017-09-17T17:32:18.933Z,22.00
2017-09-17T17:34:48.099Z,22.00
2017-09-17T17:37:16.407Z,22.00
2017-09-17T17:39:44.699Z,22.00
2017-09-17T17:42:13.889Z,21.90
2017-09-17T17:44:42.887Z,21.90
2017-09-17T17:47:11.233Z,21.90
2017-09-17T17:49:39.535Z,21.90
2017-09-17T17:52:08.558Z,21.90
2017-09-17T17:54:36.827Z,21.90
2017-09-17T17:57:05.075Z,21.90
2017-09-17T17:59:34.083Z,21.90
2017-09-17T18:02:02.305Z,21.90
2017-09-17T18:04:30.604Z,21.90
2017-09-17T18:06:58.882Z,21.90
2017-09-17T18:09:27.135Z,21.90
2017-09-17T18:11:55.503Z,21.90
2017-09-17T18:14:23.941Z,21.90
2017-09-17T18:16:53.880Z,21.90
2017-09-17T18:19:22.747Z,21.90
2017-09-17T18:21:51.079Z,22.00
2017-09-17T18:24:19.338Z,22.00
2017-09-17T18:26:47.750Z,22.00
2017-09-17T18:29:16.140Z,22.00
2017-09-17T18:31:45.395Z,22.00
2017-09-17T18:34:14.618Z,22.00
2017-09-17T18:36:42.927Z,22.00
2017-09-17T18:39:11.537Z,22.00
2017-09-17T18:41:39.826Z,22.00
2017-09-17T18:44:08.154Z,22.00
2017-09-17T18:46:36.529Z,22.00
2017-09-17T18:49:05.562Z,22.00
2017-09-17T18:51:33.872Z,22.00
2017-09-17T18:54:02.177Z,22.10
2017-09-17T18:56:30.534Z,22.10
2017-09-17T18:58:58.909Z,22.10
2017-09-17T19:01:27.216Z,22.10
2017-09-17T19:03:56.796Z,22.10
2017-09-17T19:06:25.182Z,22.10
2017-09-17T19:08:54.281Z,22.10
2017-09-17T19:11:22.537Z,22.10
2017-09-17T19:13:50.848Z,22.10
2017-09-17T19:16:19.189Z,22.10
2017-09-17T19:18:48.248Z,22.10
2017-09-17T19:21:16.554Z,22.00
2017-09-17T19:23:44.928Z,22.10
2017-09-17T19:26:13.215Z,22.10
2017-09-17T19:28:41.626Z,22.10
2017-09-17T19:31:10.919Z,22.00
2017-09-17T19:33:39.311Z,22.10
2017-09-17T19:36:07.616Z,22.10
2017-09-17T19:38:35.897Z,22.10
2017-09-17T19:41:07.435Z,22.00
2017-09-17T19:43:35.690Z,22.00
2017-09-17T19:46:04.049Z,22.00
2017-09-17T19:48:32.379Z,22.00
2017-09-17T19:51:00.667Z,21.90
2017-09-17T19:53:28.910Z,22.00
2017-09-17T19:55:57.134Z,22.00
2017-09-17T19:58:26.178Z,22.00
2017-09-17T20:00:54.956Z,22.00
2017-09-17T20:03:23.319Z,22.00
2017-09-17T20:05:51.686Z,22.00
2017-09-17T20:08:19.923Z,22.00
2017-09-17T20:10:48.164Z,22.00
2017-09-17T20:13:17.124Z,22.00
2017-09-17T20:15:46.148Z,22.00
2017-09-17T20:18:14.491Z,22.00
2017-09-17T20:20:43.635Z,22.00
2017-09-17T20:23:11.945Z,22.00
2017-09-17T20:25:40.199Z,22.00
2017-09-17T20:28:08.501Z,22.00
2017-09-17T20:30:37.602Z,22.00
2017-09-17T20:33:06.640Z,22.00
2017-09-17T20:35:34.892Z,22.00
2017-09-17T20:38:03.190Z,22.00
2017-09-17T20:40:31.427Z,22.00
2017-09-17T20:42:59.706Z,22.00
2017-09-17T20:45:28.710Z,22.10
2017-09-17T20:47:56.984Z,22.00
2017-09-17T20:50:25.299Z,22.10
2017-09-17T20:52:53.515Z,22.10
2017-09-17T20:55:21.745Z,22.00
2017-09-17T20:57:49.965Z,22.00
2017-09-17T21:00:19.010Z,22.00
2017-09-17T21:02:47.688Z,22.00
2017-09-17T21:05:15.934Z,22.00
2017-09-17T21:07:44.203Z,21.90
2017-09-17T21:10:12.432Z,21.90
2017-09-17T21:12:40.739Z,21.90
2017-09-17T21:15:10.365Z,22.00
2017-09-17T21:17:39.351Z,22.00
2017-09-17T21:20:09.307Z,22.00
2017-09-17T21:22:37.512Z,22.10
2017-09-17T21:25:05.762Z,22.00
2017-09-17T21:27:33.977Z,22.00
2017-09-17T21:30:03.010Z,22.00
2017-09-17T21:32:31.243Z,22.00
2017-09-17T21:35:00.188Z,22.00
2017-09-17T21:37:28.459Z,21.90
2017-09-17T21:39:56.833Z,21.90
2017-09-17T21:42:25.030Z,21.90
2017-09-17T21:44:53.254Z,21.90
2017-09-17T21:47:22.232Z,21.90
2017-09-17T21:49:51.277Z,21.90
2017-09-17T21:52:19.547Z,21.90
2017-09-17T21:54:47.746Z,21.90
2017-09-17T21:57:16.023Z,21.90
2017-09-17T21:59:44.856Z,21.90
2017-09-17T22:02:13.124Z,21.90
2017-09-17T22:04:41.420Z,21.90
2017-09-17T22:07:09.637Z,21.90
2017-09-17T22:09:37.874Z,21.90
2017-09-17T22:12:06.193Z,21.90
2017-09-17T22:14:35.244Z,21.80
2017-09-17T22:17:03.565Z,21.80
2017-09-17T22:19:32.559Z,21.80
2017-09-17T22:22:00.793Z,21.70
2017-09-17T22:24:29.146Z,21.70
2017-09-17T22:26:58.071Z,21.60
2017-09-17T22:29:26.344Z,21.70
2017-09-17T22:31:54.642Z,21.60
2017-09-17T22:34:22.996Z,21.60
2017-09-17T22:36:51.318Z,21.50
2017-09-17T22:39:20.355Z,21.50
2017-09-17T22:41:48.590Z,21.50
2017-09-17T22:44:16.918Z,21.40
2017-09-17T22:46:45.207Z,21.40
2017-09-17T22:49:13.471Z,21.40
2017-09-17T22:51:41.798Z,21.40
2017-09-17T22:54:10.167Z,21.40
2017-09-17T22:56:39.267Z,21.40
2017-09-17T22:59:07.488Z,21.40
2017-09-17T23:01:35.762Z,21.40
2017-09-17T23:04:04.026Z,21.40
2017-09-17T23:06:32.270Z,21.40
2017-09-17T23:09:01.356Z,21.40
2017-09-17T23:11:31.188Z,21.40
2017-09-17T23:13:59.436Z,21.30
2017-09-17T23:16:28.475Z,21.30
2017-09-17T23:18:56.712Z,21.30
2017-09-17T23:21:24.954Z,21.30
2017-09-17T23:23:53.223Z,21.30
2017-09-17T23:26:21.554Z,21.30
2017-09-17T23:28:49.744Z,21.30
2017-09-17T23:31:18.338Z,21.30
2017-09-17T23:33:46.602Z,21.30
2017-09-17T23:36:17.200Z,21.30
2017-09-17T23:38:45.526Z,21.30
2017-09-17T23:41:13.814Z,21.30
2017-09-17T23:43:42.246Z,21.30
2017-09-17T23:46:10.690Z,21.30
2017-09-17T23:48:39.752Z,21.30
2017-09-17T23:51:08.026Z,21.30
2017-09-17T23:53:50.888Z,21.30
2017-09-17T23:56:19.933Z,21.20
2017-09-17T23:58:48.217Z,21.20
